Commodore Clipper — C6QQ3 — position and weather

sailwx.info

Track history (hours):
 
Tides and Currents Weather Stations Pressure Air Temp Water Temp Dewpoint Dewpoint Depression Visibility Wind Speed Wind Dir Waves Ship Positions

Commodore Clipper

Operator: Condor Marine Services

Last reported at 2018-Jul-22 07:00 UTC. Time now 2018-Jul-22 06:58 UTC.
Position N 50°49' W 001°06'.

Length 130 m; draft 5.4 m.

Type: Ship. MMSI: 308094000.

Date/timePositionNaut miles runAvg speedWind from/ knotsBaromVisibWave heightAir tempDewpointWater temp
2018-Jul-22 07:00N 50°49' W 001°06'0 0.0
2018-Jul-22 06:30N 50°49' W 001°06'0 0.0
2018-Jul-22 06:00N 50°49' W 001°06'0 0.0
2018-Jul-22 05:30N 50°49' W 001°06'1 2.3
2018-Jul-22 05:00N 50°48' W 001°07'714.0
2018-Jul-22 04:31N 50°41' W 001°03'917.5
2018-Jul-22 03:59N 50°34' W 001°11'714.9
2018-Jul-22 03:30N 50°28' W 001°17'813.7
2018-Jul-22 02:56N 50°21' W 001°24'613.4
2018-Jul-22 02:31N 50°17' W 001°30'712.9
2018-Jul-22 02:00N 50°12' W 001°36'612.7
2018-Jul-22 01:30N 50°06' W 001°40'611.9
2018-Jul-22 01:00N 50°02' W 001°46'815.7
2018-Jul-22 00:30N 49°55' W 001°52'918.0
2018-Jul-22 00:00N 49°47' W 001°59'917.6
2018-Jul-21 23:30N 49°39' W 002°06'816.3
2018-Jul-21 23:00N 49°33' W 002°13'816.7
2018-Jul-21 22:30N 49°28' W 002°23'611.1
2018-Jul-21 22:00N 49°27' W 002°32'0 0.2
2018-Jul-21 21:30N 49°27' W 002°32'0 0.0
2018-Jul-21 21:01N 49°27' W 002°32'0 0.0
2018-Jul-21 20:29N 49°27' W 002°32'3 7.2
2018-Jul-21 20:00N 49°25' W 002°29'1016.8
2018-Jul-21 19:23N 49°15' W 002°22'616.0
2018-Jul-21 19:00N 49°10' W 002°17'612.3
2018-Jul-21 18:29N 49°11' W 002°07'0 0.0
2018-Jul-21 17:51N 49°11' W 002°07'0 0.0
2018-Jul-21 16:39N 49°11' W 002°07'0 2.9
2018-Jul-21 16:30N 49°10' W 002°07'714.2
2018-Jul-21 16:00N 49°11' W 002°18'815.0
2018-Jul-21 15:29N 49°19' W 002°19'715.5
2018-Jul-21 15:00N 49°25' W 002°15'815.6
2018-Jul-21 14:29N 49°33' W 002°10'1414.0
2018-Jul-21 13:30N 49°45' W 002°02'3715.9
2018-Jul-21 11:12N 50°16' W 001°30'417.5
2018-Jul-21 10:59N 50°19' W 001°27'1517.8
2018-Jul-21 10:07N 50°32' W 001°13'218.4
2018-Jul-21 10:01N 50°33' W 001°11'918.0
2018-Jul-21 09:30N 50°41' W 001°03'714.5
2018-Jul-21 09:01N 50°48' W 001°07'1 2.6
2018-Jul-21 08:30N 50°49' W 001°06'0 0.0
2018-Jul-21 08:01N 50°49' W 001°06'0 0.0
2018-Jul-21 07:30N 50°49' W 001°06'0 0.0
2018-Jul-21 07:01N 50°49' W 001°06'0 0.0
2018-Jul-21 06:30N 50°49' W 001°06'0 0.0
2018-Jul-21 06:01N 50°49' W 001°06'1 1.2
2018-Jul-21 05:30N 50°49' W 001°07'612.4
2018-Jul-21 05:00N 50°43' W 001°03'613.0
2018-Jul-21 04:31N 50°37' W 001°08'2916.3
2018-Jul-21 02:44N 50°13' W 001°33'918.4
2018-Jul-21 02:15N 50°05' W 001°41'418.5
2018-Jul-21 02:00N 50°02' W 001°45'817.1
2018-Jul-21 01:30N 49°55' W 001°53'817.0
2018-Jul-21 01:00N 49°48' W 001°60'1020.0
2018-Jul-21 00:30N 49°38' W 002°06'918.9
2018-Jul-21 00:00N 49°30' W 002°11'918.2
2018-Jul-20 23:30N 49°21' W 002°17'916.6
2018-Jul-20 22:59N 49°13' W 002°20'9 3.0
2018-Jul-20 20:01N 49°11' W 002°07'0 1.8
2018-Jul-20 20:01N 49°11' W 002°07'5 8.7
2018-Jul-20 19:28N 49°10' W 002°14'713.5
2018-Jul-20 18:59N 49°15' W 002°21'612.0
2018-Jul-20 18:30N 49°20' W 002°25'612.4
2018-Jul-20 18:00N 49°25' W 002°29'3 5.3
2018-Jul-20 17:30N 49°27' W 002°32'0 0.0
2018-Jul-20 17:00N 49°27' W 002°32'0 0.0
2018-Jul-20 16:30N 49°27' W 002°32'1 2.8
2018-Jul-20 16:01N 49°27' W 002°30'713.0
2018-Jul-20 15:30N 49°29' W 002°20'816.0
2018-Jul-20 15:00N 49°34' W 002°10'914.9
2018-Jul-20 14:24N 49°42' W 002°04'513.4
2018-Jul-20 14:00N 49°46' W 002°00'713.2
2018-Jul-20 13:30N 49°51' W 001°53'814.3
2018-Jul-20 12:58N 49°57' W 001°46'715.0
2018-Jul-20 12:29N 50°03' W 001°39'1416.0
2018-Jul-20 11:38N 50°15' W 001°28'1016.7
2018-Jul-20 11:01N 50°24' W 001°21'816.8
2018-Jul-20 10:30N 50°30' W 001°12'917.3
2018-Jul-20 10:00N 50°37' W 001°04'713.7
2018-Jul-20 09:31N 50°44' W 001°04'5 9.9
2018-Jul-20 09:01N 50°49' W 001°06'0 0.2
2018-Jul-20 08:30N 50°49' W 001°06'0 0.0
2018-Jul-20 08:00N 50°49' W 001°06'0 0.0
2018-Jul-20 07:30N 50°49' W 001°06'0 0.0
2018-Jul-20 07:00N 50°49' W 001°06'0 0.0
2018-Jul-20 06:30N 50°49' W 001°06'0 0.0
2018-Jul-20 06:00N 50°49' W 001°06'1 2.8
2018-Jul-20 05:30N 50°48' W 001°07'713.9
2018-Jul-20 05:01N 50°41' W 001°03'714.5
2018-Jul-20 04:31N 50°35' W 001°09'1314.9
2018-Jul-20 03:39N 50°25' W 001°21'315.9
2018-Jul-20 03:28N 50°22' W 001°24'716.4
2018-Jul-20 03:00N 50°16' W 001°31'816.1
2018-Jul-20 02:30N 50°10' W 001°38'916.1
2018-Jul-20 01:58N 50°03' W 001°46'817.9
2018-Jul-20 01:30N 49°56' W 001°53'1019.7
2018-Jul-20 01:00N 49°47' W 002°00'1021.1
2018-Jul-20 00:30N 49°37' W 002°07'1019.4
2018-Jul-20 00:00N 49°29' W 002°13'1019.2
2018-Jul-19 23:30N 49°20' W 002°18'916.9
2018-Jul-19 22:59N 49°11' W 002°18'715.0
2018-Jul-19 22:30N 49°10' W 002°07'0 0.5
2018-Jul-19 21:27N 49°11' W 002°07'0 0.0
2018-Jul-19 19:33N 49°11' W 002°07'0 0.7
2018-Jul-19 19:30N 49°11' W 002°07'610.0
2018-Jul-19 18:57N 49°10' W 002°15'817.8
2018-Jul-19 18:30N 49°16' W 002°22'918.1
2018-Jul-19 18:00N 49°25' W 002°28'4 7.2
2018-Jul-19 17:30N 49°27' W 002°32'0 0.0
2018-Jul-19 17:00N 49°27' W 002°32'0 0.0
2018-Jul-19 16:30N 49°27' W 002°32'0 0.0
2018-Jul-19 16:00N 49°27' W 002°32'2 5.1
2018-Jul-19 15:30N 49°26' W 002°29'917.0
2018-Jul-19 15:00N 49°30' W 002°18'1615.5
2018-Jul-19 14:00N 49°43' W 002°04'714.1
2018-Jul-19 13:30N 49°49' W 001°57'713.8
2018-Jul-19 13:00N 49°54' W 001°51'714.4
2018-Jul-19 12:30N 49°59' W 001°43'815.0
2018-Jul-19 12:00N 50°06' W 001°37'815.6
2018-Jul-19 11:30N 50°12' W 001°31'815.9
2018-Jul-19 11:00N 50°19' W 001°23'816.3
2018-Jul-19 10:30N 50°25' W 001°15'816.4
2018-Jul-19 10:00N 50°32' W 001°08'816.7
2018-Jul-19 09:30N 50°38' W 001°00'713.8
2018-Jul-19 09:00N 50°45' W 001°05'4 8.3
2018-Jul-19 08:30N 50°49' W 001°06'0 0.0
2018-Jul-19 08:01N 50°49' W 001°06'0 0.0
2018-Jul-19 07:30N 50°49' W 001°06'0 0.0
2018-Jul-19 07:01N 50°49' W 001°06'0 0.0
2018-Jul-19 06:31N 50°49' W 001°06'0 0.0
2018-Jul-19 06:01N 50°49' W 001°06'0 0.0
2018-Jul-19 05:31N 50°49' W 001°06'2 3.2
2018-Jul-19 05:01N 50°47' W 001°07'713.3
2018-Jul-19 04:30N 50°41' W 001°02'714.7
2018-Jul-19 04:00N 50°35' W 001°09'715.0
2018-Jul-19 03:30N 50°30' W 001°17'714.6
2018-Jul-19 03:00N 50°24' W 001°25'815.3
2018-Jul-19 02:30N 50°18' W 001°33'916.8
2018-Jul-19 02:00N 50°11' W 001°40'612.4
2018-Jul-19 01:30N 50°05' W 001°41'613.1
2018-Jul-19 01:01N 49°59' W 001°44'815.1
2018-Jul-19 00:30N 49°54' W 001°52'918.8
2018-Jul-19 00:00N 49°46' W 002°01'1121.3
2018-Jul-18 23:30N 49°36' W 002°08'918.2
2018-Jul-18 23:00N 49°28' W 002°14'917.2
2018-Jul-18 22:31N 49°20' W 002°19'816.3
2018-Jul-18 22:00N 49°12' W 002°19'815.0
2018-Jul-18 21:29N 49°10' W 002°08'1 0.3
2018-Jul-18 19:07N 49°11' W 002°07'0 0.6
2018-Jul-18 19:00N 49°11' W 002°07'714.9
2018-Jul-18 18:30N 49°11' W 002°18'918.1
2018-Jul-18 18:01N 49°19' W 002°24'917.7
2018-Jul-18 17:31N 49°27' W 002°30'1 2.8
2018-Jul-18 17:00N 49°27' W 002°32'0 0.0
2018-Jul-18 16:28N 49°27' W 002°32'0 0.0
2018-Jul-18 16:00N 49°27' W 002°32'2 3.7
2018-Jul-18 15:30N 49°26' W 002°30'816.2
2018-Jul-18 15:00N 49°30' W 002°19'917.1
2018-Jul-18 14:28N 49°36' W 002°08'1515.8
2018-Jul-18 13:30N 49°50' W 001°57'714.7
2018-Jul-18 13:00N 49°55' W 001°50'714.1
2018-Jul-18 12:30N 50°00' W 001°42'714.7
2018-Jul-18 12:00N 50°07' W 001°36'1114.8
2018-Jul-18 11:15N 50°16' W 001°27'1314.9
2018-Jul-18 10:24N 50°26' W 001°15'615.2
2018-Jul-18 10:00N 50°31' W 001°10'815.3
2018-Jul-18 09:30N 50°38' W 001°03'612.9
2018-Jul-18 09:00N 50°44' W 001°04'510.0
2018-Jul-18 08:31N 50°49' W 001°06'0 0.8
2018-Jul-18 08:01N 50°49' W 001°06'0 0.0
2018-Jul-18 07:30N 50°49' W 001°06'0 0.0
2018-Jul-18 07:01N 50°49' W 001°06'0 0.0
2018-Jul-18 06:30N 50°49' W 001°06'0 0.0
2018-Jul-18 06:01N 50°49' W 001°06'0 0.0
2018-Jul-18 05:31N 50°49' W 001°06'1 2.9
2018-Jul-18 05:01N 50°47' W 001°07'713.9
2018-Jul-18 04:30N 50°41' W 001°03'714.7
2018-Jul-18 04:00N 50°35' W 001°10'612.3
2018-Jul-18 03:30N 50°30' W 001°15'5013.6
2018-Jul-17 23:48N 49°48' W 001°59'617.1
2018-Jul-17 23:25N 49°42' W 002°04'716.3
2018-Jul-17 23:00N 49°36' W 002°08'1020.0
2018-Jul-17 22:30N 49°27' W 002°14'1020.1
2018-Jul-17 22:00N 49°17' W 002°20'6 1.5
2018-Jul-17 18:10N 49°12' W 002°19'419.0
2018-Jul-17 17:59N 49°15' W 002°21'817.6
2018-Jul-17 17:30N 49°22' W 002°27'611.2
2018-Jul-17 16:58N 49°27' W 002°32'0 0.0
2018-Jul-17 16:28N 49°27' W 002°32'0 0.0
2018-Jul-17 15:52N 49°27' W 002°32'1 2.7
2018-Jul-17 15:30N 49°27' W 002°30'713.2
2018-Jul-17 15:00N 49°29' W 002°20'1018.0
2018-Jul-17 14:28N 49°35' W 002°09'5715.2
2018-Jul-17 10:41N 50°23' W 001°20'714.3
2018-Jul-17 10:14N 50°28' W 001°14'313.9
2018-Jul-17 10:00N 50°31' W 001°11'714.1
2018-Jul-17 09:30N 50°36' W 001°05'612.6
2018-Jul-17 09:00N 50°42' W 000°60'714.8
2018-Jul-17 08:30N 50°48' W 001°07'1 2.2
2018-Jul-17 07:59N 50°49' W 001°06'0 0.0
2018-Jul-17 07:29N 50°49' W 001°06'0 0.0
2018-Jul-17 06:59N 50°49' W 001°06'0 0.0
2018-Jul-17 06:29N 50°49' W 001°06'0 0.0
2018-Jul-17 05:59N 50°49' W 001°06'0 0.0
2018-Jul-17 05:29N 50°49' W 001°06'2 3.9
2018-Jul-17 05:01N 50°47' W 001°06'713.2
2018-Jul-17 04:30N 50°40' W 001°03'714.4
2018-Jul-17 04:01N 50°35' W 001°10'711.7
2018-Jul-17 03:23N 50°28' W 001°15'5714.5
2018-Jul-16 23:30N 49°41' W 002°05'1019.6
2018-Jul-16 22:59N 49°32' W 002°11'1020.3
2018-Jul-16 22:30N 49°23' W 002°16'11 2.5
2018-Jul-16 18:13N 49°12' W 002°19'618.6
2018-Jul-16 17:54N 49°17' W 002°23'717.9
2018-Jul-16 17:30N 49°24' W 002°28'4 7.4
2018-Jul-16 16:56N 49°27' W 002°32'0 0.0
2018-Jul-16 16:29N 49°27' W 002°32'0 0.0
2018-Jul-16 15:56N 49°27' W 002°32'1 2.8
2018-Jul-16 15:30N 49°27' W 002°30'510.2
2018-Jul-16 15:00N 49°28' W 002°22'815.8
2018-Jul-16 14:30N 49°33' W 002°12'714.1
2018-Jul-16 14:00N 49°38' W 002°06'915.4
2018-Jul-16 13:24N 49°47' W 002°01'615.6
2018-Jul-16 12:59N 49°52' W 001°55'715.9
2018-Jul-16 12:30N 49°58' W 001°48'815.2
2018-Jul-16 12:00N 50°04' W 001°41'814.8
2018-Jul-16 11:30N 50°11' W 001°34'714.7
2018-Jul-16 10:59N 50°17' W 001°28'914.3
2018-Jul-16 10:21N 50°24' W 001°18'514.4
2018-Jul-16 10:00N 50°28' W 001°14'713.9
2018-Jul-16 09:30N 50°34' W 001°08'714.7
2018-Jul-16 09:00N 50°39' W 001°01'714.8
2018-Jul-16 08:30N 50°46' W 001°06'2 4.6
2018-Jul-16 07:58N 50°49' W 001°06'0 0.0
2018-Jul-16 07:28N 50°49' W 001°06'0 0.0
2018-Jul-16 06:58N 50°49' W 001°06'0 0.0
2018-Jul-16 06:28N 50°49' W 001°06'0 0.0
2018-Jul-16 05:58N 50°49' W 001°06'0 0.0
2018-Jul-16 05:28N 50°49' W 001°06'0 0.0
2018-Jul-16 04:58N 50°49' W 001°06'0 0.0
2018-Jul-16 04:28N 50°49' W 001°06'0 0.0
2018-Jul-16 03:58N 50°49' W 001°06'0 0.0
2018-Jul-16 03:28N 50°49' W 001°06'0 0.0
2018-Jul-16 02:58N 50°49' W 001°06'0 0.0
2018-Jul-16 02:28N 50°49' W 001°06'0 0.0
2018-Jul-16 01:58N 50°49' W 001°06'0 0.0
2018-Jul-16 01:28N 50°49' W 001°06'0 0.0
2018-Jul-16 00:58N 50°49' W 001°06'0 0.0
2018-Jul-16 00:28N 50°49' W 001°06'0 0.0
2018-Jul-15 23:58N 50°49' W 001°06'0 0.0
2018-Jul-15 23:28N 50°49' W 001°06'0 0.0
2018-Jul-15 22:58N 50°49' W 001°06'0 0.0
2018-Jul-15 22:28N 50°49' W 001°06'0 0.0
2018-Jul-15 21:58N 50°49' W 001°06'0 0.0
2018-Jul-15 21:28N 50°49' W 001°06'0 0.0
2018-Jul-15 20:58N 50°49' W 001°06'0 0.0
2018-Jul-15 20:28N 50°49' W 001°06'0 0.0
2018-Jul-15 19:58N 50°49' W 001°06'0 0.0
2018-Jul-15 19:28N 50°49' W 001°06'0 0.0
2018-Jul-15 18:58N 50°49' W 001°06'0 0.0
2018-Jul-15 18:28N 50°49' W 001°06'0 0.0
2018-Jul-15 17:58N 50°49' W 001°06'0 0.0
2018-Jul-15 17:28N 50°49' W 001°06'0 0.0
2018-Jul-15 16:58N 50°49' W 001°06'0 0.0
2018-Jul-15 16:28N 50°49' W 001°06'0 0.0
2018-Jul-15 15:58N 50°49' W 001°06'0 0.0
2018-Jul-15 15:28N 50°49' W 001°06'0 0.0
2018-Jul-15 14:58N 50°49' W 001°06'0 0.0
2018-Jul-15 14:28N 50°49' W 001°06'0 0.0
2018-Jul-15 13:58N 50°49' W 001°06'0 0.0
2018-Jul-15 13:28N 50°49' W 001°06'0 0.0
2018-Jul-15 12:58N 50°49' W 001°06'0 0.0
2018-Jul-15 12:28N 50°49' W 001°06'0 0.0
2018-Jul-15 11:58N 50°49' W 001°06'0 0.0
2018-Jul-15 11:28N 50°49' W 001°06'0 0.0
2018-Jul-15 10:58N 50°49' W 001°06'0 0.0
2018-Jul-15 10:31N 50°49' W 001°06'0 0.0
2018-Jul-15 10:01N 50°49' W 001°06'0 0.0
2018-Jul-15 09:31N 50°49' W 001°06'0 0.0
2018-Jul-15 09:01N 50°49' W 001°06'0 0.0
2018-Jul-15 08:31N 50°49' W 001°06'0 0.0
2018-Jul-15 08:01N 50°49' W 001°06'0 0.0
2018-Jul-15 07:31N 50°49' W 001°06'1 1.6
2018-Jul-15 07:01N 50°48' W 001°07'611.6
2018-Jul-15 06:30N 50°43' W 001°03'612.8
2018-Jul-15 06:00N 50°37' W 001°01'815.7
2018-Jul-15 05:30N 50°31' W 001°09'815.4
2018-Jul-15 05:00N 50°25' W 001°16'714.7
2018-Jul-15 04:30N 50°19' W 001°24'814.6
2018-Jul-15 03:57N 50°12' W 001°29'1413.4
2018-Jul-15 02:56N 50°02' W 001°43'713.5
2018-Jul-15 02:26N 49°56' W 001°49'613.7
2018-Jul-15 02:00N 49°51' W 001°55'613.1
2018-Jul-15 01:30N 49°46' W 001°60'510.8
2018-Jul-15 01:00N 49°41' W 002°04'814.2
2018-Jul-15 00:27N 49°34' W 002°09'716.2
2018-Jul-15 00:00N 49°27' W 002°14'816.5
2018-Jul-14 23:30N 49°20' W 002°18'916.7
2018-Jul-14 22:59N 49°11' W 002°18'7 4.1
2018-Jul-14 21:11N 49°11' W 002°07'3 7.4
2018-Jul-14 20:49N 49°10' W 002°11'412.9
2018-Jul-14 20:31N 49°08' W 002°16'4 7.3
2018-Jul-14 20:00N 49°04' W 002°18'1 1.3
2018-Jul-14 19:27N 49°04' W 002°17'4 9.9
2018-Jul-14 19:00N 49°01' W 002°22'5 8.5
2018-Jul-14 18:27N 48°56' W 002°23'4 7.9
2018-Jul-14 18:00N 48°53' W 002°20'4 7.0
2018-Jul-14 17:27N 48°50' W 002°16'6 6.8
2018-Jul-14 16:30N 48°45' W 002°10'4 8.0
2018-Jul-14 15:59N 48°42' W 002°06'5 8.7
2018-Jul-14 15:28N 48°38' W 002°02'0 0.0
2018-Jul-14 14:58N 48°38' W 002°02'0 0.0
2018-Jul-14 14:28N 48°38' W 002°02'0 0.0
2018-Jul-14 13:22N 48°38' W 002°02'0 0.0
2018-Jul-14 12:58N 48°38' W 002°02'0 0.0
2018-Jul-14 12:28N 48°38' W 002°02'0 0.3
2018-Jul-14 12:01N 48°38' W 002°02'1914.0
2018-Jul-14 10:37N 48°57' W 001°56'316.8
2018-Jul-14 10:27N 49°00' W 001°55'714.9
2018-Jul-14 10:00N 49°05' W 002°01'6 3.6
2018-Jul-14 08:13N 49°11' W 002°07'1 5.5
2018-Jul-14 08:01N 49°10' W 002°08'714.1
2018-Jul-14 07:30N 49°12' W 002°19'816.2
2018-Jul-14 07:00N 49°19' W 002°24'816.5
2018-Jul-14 06:30N 49°26' W 002°30'2 3.2
2018-Jul-14 06:00N 49°27' W 002°32'0 0.0
2018-Jul-14 05:30N 49°27' W 002°32'0 0.0
2018-Jul-14 05:00N 49°27' W 002°32'3 6.5
2018-Jul-14 04:30N 49°26' W 002°28'714.6
2018-Jul-14 04:00N 49°30' W 002°18'612.9
2018-Jul-14 03:30N 49°34' W 002°10'714.0
2018-Jul-14 03:01N 49°40' W 002°06'815.7
2018-Jul-14 02:30N 49°47' W 002°01'714.3
2018-Jul-14 02:00N 49°53' W 001°55'1514.8
2018-Jul-14 01:00N 50°05' W 001°41'714.0
2018-Jul-14 00:30N 50°11' W 001°35'1217.2
2018-Jul-13 23:49N 50°21' W 001°26'617.6
2018-Jul-13 23:30N 50°26' W 001°21'817.0
2018-Jul-13 23:00N 50°32' W 001°12'816.7
2018-Jul-13 22:30N 50°39' W 001°05'713.8
2018-Jul-13 22:01N 50°46' W 001°05'3 5.6
2018-Jul-13 21:31N 50°49' W 001°06'0 0.0
2018-Jul-13 21:01N 50°49' W 001°06'0 0.0
2018-Jul-13 20:31N 50°49' W 001°06'0 0.0
2018-Jul-13 20:01N 50°49' W 001°06'0 0.0
2018-Jul-13 19:31N 50°49' W 001°06'0 0.0
2018-Jul-13 19:01N 50°49' W 001°06'0 0.0
2018-Jul-13 18:31N 50°49' W 001°06'1 1.0
2018-Jul-13 18:00N 50°49' W 001°06'510.3
2018-Jul-13 17:31N 50°44' W 001°03'714.4
2018-Jul-13 17:01N 50°37' W 001°04'916.9
2018-Jul-13 16:29N 50°29' W 001°12'816.4
2018-Jul-13 16:01N 50°23' W 001°19'815.8
2018-Jul-13 15:30N 50°17' W 001°26'815.0
2018-Jul-13 14:58N 50°10' W 001°34'714.4
2018-Jul-13 14:30N 50°05' W 001°40'1413.9
2018-Jul-13 13:30N 49°53' W 001°52'713.5
2018-Jul-13 13:00N 49°48' W 001°58'511.1
2018-Jul-13 12:30N 49°43' W 002°02'611.9
2018-Jul-13 12:00N 49°38' W 002°07'714.5
2018-Jul-13 11:30N 49°31' W 002°11'816.1
2018-Jul-13 11:00N 49°24' W 002°16'816.5
2018-Jul-13 10:30N 49°16' W 002°20'714.8
2018-Jul-13 10:00N 49°10' W 002°13'4 1.8
2018-Jul-13 07:41N 49°11' W 002°07'1 4.2
2018-Jul-13 07:30N 49°10' W 002°08'714.0
2018-Jul-13 07:00N 49°11' W 002°18'815.6
2018-Jul-13 06:30N 49°18' W 002°24'816.4
2018-Jul-13 06:00N 49°25' W 002°29'3 5.4
2018-Jul-13 05:29N 49°27' W 002°32'0 0.0
2018-Jul-13 05:00N 49°27' W 002°32'0 0.0
2018-Jul-13 04:30N 49°27' W 002°32'0 0.2
2018-Jul-13 03:59N 49°27' W 002°32'5 9.5
2018-Jul-13 03:30N 49°27' W 002°24'714.1
2018-Jul-13 03:00N 49°31' W 002°15'612.8
2018-Jul-13 02:30N 49°35' W 002°08'814.0
2018-Jul-13 01:57N 49°42' W 002°04'714.2
2018-Jul-13 01:28N 49°48' W 001°59'4315.9
2018-Jul-12 22:47N 50°24' W 001°21'517.4
2018-Jul-12 22:28N 50°28' W 001°16'817.0
2018-Jul-12 22:00N 50°35' W 001°10'816.3
2018-Jul-12 21:31N 50°42' W 001°02'713.7
2018-Jul-12 21:00N 50°48' W 001°07'1 2.2
2018-Jul-12 20:30N 50°49' W 001°06'0 0.0
2018-Jul-12 20:00N 50°49' W 001°06'0 0.0
2018-Jul-12 19:30N 50°49' W 001°06'0 0.0
2018-Jul-12 19:00N 50°49' W 001°06'0 0.0
2018-Jul-12 18:30N 50°49' W 001°06'0 0.0
2018-Jul-12 18:00N 50°49' W 001°06'0 0.0
2018-Jul-12 17:30N 50°49' W 001°06'2 4.7
2018-Jul-12 17:00N 50°46' W 001°06'714.1
2018-Jul-12 16:31N 50°40' W 001°01'917.4
2018-Jul-12 15:58N 50°32' W 001°09'2216.2
2018-Jul-12 14:37N 50°14' W 001°28'315.3
2018-Jul-12 14:27N 50°12' W 001°31'714.7
2018-Jul-12 13:58N 50°06' W 001°38'714.3
2018-Jul-12 13:30N 50°01' W 001°43'714.1
2018-Jul-12 13:00N 49°55' W 001°50'713.8
2018-Jul-12 12:30N 49°50' W 001°56'612.6
2018-Jul-12 12:00N 49°44' W 002°01'611.3
2018-Jul-12 11:28N 49°39' W 002°05'714.2
2018-Jul-12 11:00N 49°33' W 002°10'815.9
2018-Jul-12 10:31N 49°26' W 002°14'816.5
2018-Jul-12 10:01N 49°18' W 002°19'1113.2
2018-Jul-12 09:10N 49°10' W 002°08'  
Track history (hours):
 
Tides and Currents Weather Stations Pressure Air Temp Water Temp Dewpoint Dewpoint Depression Visibility Wind Speed Wind Dir Waves Ship Positions

Commodore Clipper

Operator: Condor Marine Services

Last reported at 2018-Jul-22 07:00 UTC. Time now 2018-Jul-22 06:58 UTC.
Position N 50°49' W 001°06'.

Length 130 m; draft 5.4 m.

Type: Ship. MMSI: 308094000.

Date/timePositionNaut miles runAvg speedWind from/ knotsBaromVisibWave heightAir tempDewpointWater temp
2018-Jul-22 07:00N 50°49' W 001°06'0 0.0
2018-Jul-22 06:30N 50°49' W 001°06'0 0.0
2018-Jul-22 06:00N 50°49' W 001°06'0 0.0
2018-Jul-22 05:30N 50°49' W 001°06'1 2.3
2018-Jul-22 05:00N 50°48' W 001°07'714.0
2018-Jul-22 04:31N 50°41' W 001°03'917.5
2018-Jul-22 03:59N 50°34' W 001°11'714.9
2018-Jul-22 03:30N 50°28' W 001°17'813.7
2018-Jul-22 02:56N 50°21' W 001°24'613.4
2018-Jul-22 02:31N 50°17' W 001°30'712.9
2018-Jul-22 02:00N 50°12' W 001°36'612.7
2018-Jul-22 01:30N 50°06' W 001°40'611.9
2018-Jul-22 01:00N 50°02' W 001°46'815.7
2018-Jul-22 00:30N 49°55' W 001°52'918.0
2018-Jul-22 00:00N 49°47' W 001°59'917.6
2018-Jul-21 23:30N 49°39' W 002°06'816.3
2018-Jul-21 23:00N 49°33' W 002°13'816.7
2018-Jul-21 22:30N 49°28' W 002°23'611.1
2018-Jul-21 22:00N 49°27' W 002°32'0 0.2
2018-Jul-21 21:30N 49°27' W 002°32'0 0.0
2018-Jul-21 21:01N 49°27' W 002°32'0 0.0
2018-Jul-21 20:29N 49°27' W 002°32'3 7.2
2018-Jul-21 20:00N 49°25' W 002°29'1016.8
2018-Jul-21 19:23N 49°15' W 002°22'616.0
2018-Jul-21 19:00N 49°10' W 002°17'612.3
2018-Jul-21 18:29N 49°11' W 002°07'0 0.0
2018-Jul-21 17:51N 49°11' W 002°07'0 0.0
2018-Jul-21 16:39N 49°11' W 002°07'0 2.9
2018-Jul-21 16:30N 49°10' W 002°07'714.2
2018-Jul-21 16:00N 49°11' W 002°18'815.0
2018-Jul-21 15:29N 49°19' W 002°19'715.5
2018-Jul-21 15:00N 49°25' W 002°15'815.6
2018-Jul-21 14:29N 49°33' W 002°10'1414.0
2018-Jul-21 13:30N 49°45' W 002°02'3715.9
2018-Jul-21 11:12N 50°16' W 001°30'417.5
2018-Jul-21 10:59N 50°19' W 001°27'1517.8
2018-Jul-21 10:07N 50°32' W 001°13'218.4
2018-Jul-21 10:01N 50°33' W 001°11'918.0
2018-Jul-21 09:30N 50°41' W 001°03'714.5
2018-Jul-21 09:01N 50°48' W 001°07'1 2.6
2018-Jul-21 08:30N 50°49' W 001°06'0 0.0
2018-Jul-21 08:01N 50°49' W 001°06'0 0.0
2018-Jul-21 07:30N 50°49' W 001°06'0 0.0
2018-Jul-21 07:01N 50°49' W 001°06'0 0.0
2018-Jul-21 06:30N 50°49' W 001°06'0 0.0
2018-Jul-21 06:01N 50°49' W 001°06'1 1.2
2018-Jul-21 05:30N 50°49' W 001°07'612.4
2018-Jul-21 05:00N 50°43' W 001°03'613.0
2018-Jul-21 04:31N 50°37' W 001°08'2916.3
2018-Jul-21 02:44N 50°13' W 001°33'918.4
2018-Jul-21 02:15N 50°05' W 001°41'418.5
2018-Jul-21 02:00N 50°02' W 001°45'817.1
2018-Jul-21 01:30N 49°55' W 001°53'817.0
2018-Jul-21 01:00N 49°48' W 001°60'1020.0
2018-Jul-21 00:30N 49°38' W 002°06'918.9
2018-Jul-21 00:00N 49°30' W 002°11'918.2
2018-Jul-20 23:30N 49°21' W 002°17'916.6
2018-Jul-20 22:59N 49°13' W 002°20'9 3.0
2018-Jul-20 20:01N 49°11' W 002°07'0 1.8
2018-Jul-20 20:01N 49°11' W 002°07'5 8.7
2018-Jul-20 19:28N 49°10' W 002°14'713.5
2018-Jul-20 18:59N 49°15' W 002°21'612.0
2018-Jul-20 18:30N 49°20' W 002°25'612.4
2018-Jul-20 18:00N 49°25' W 002°29'3 5.3
2018-Jul-20 17:30N 49°27' W 002°32'0 0.0
2018-Jul-20 17:00N 49°27' W 002°32'0 0.0
2018-Jul-20 16:30N 49°27' W 002°32'1 2.8
2018-Jul-20 16:01N 49°27' W 002°30'713.0
2018-Jul-20 15:30N 49°29' W 002°20'816.0
2018-Jul-20 15:00N 49°34' W 002°10'914.9
2018-Jul-20 14:24N 49°42' W 002°04'513.4
2018-Jul-20 14:00N 49°46' W 002°00'713.2
2018-Jul-20 13:30N 49°51' W 001°53'814.3
2018-Jul-20 12:58N 49°57' W 001°46'715.0
2018-Jul-20 12:29N 50°03' W 001°39'1416.0
2018-Jul-20 11:38N 50°15' W 001°28'1016.7
2018-Jul-20 11:01N 50°24' W 001°21'816.8
2018-Jul-20 10:30N 50°30' W 001°12'917.3
2018-Jul-20 10:00N 50°37' W 001°04'713.7
2018-Jul-20 09:31N 50°44' W 001°04'5 9.9
2018-Jul-20 09:01N 50°49' W 001°06'0 0.2
2018-Jul-20 08:30N 50°49' W 001°06'0 0.0
2018-Jul-20 08:00N 50°49' W 001°06'0 0.0
2018-Jul-20 07:30N 50°49' W 001°06'0 0.0
2018-Jul-20 07:00N 50°49' W 001°06'0 0.0
2018-Jul-20 06:30N 50°49' W 001°06'0 0.0
2018-Jul-20 06:00N 50°49' W 001°06'1 2.8
2018-Jul-20 05:30N 50°48' W 001°07'713.9
2018-Jul-20 05:01N 50°41' W 001°03'714.5
2018-Jul-20 04:31N 50°35' W 001°09'1314.9
2018-Jul-20 03:39N 50°25' W 001°21'315.9
2018-Jul-20 03:28N 50°22' W 001°24'716.4
2018-Jul-20 03:00N 50°16' W 001°31'816.1
2018-Jul-20 02:30N 50°10' W 001°38'916.1
2018-Jul-20 01:58N 50°03' W 001°46'817.9
2018-Jul-20 01:30N 49°56' W 001°53'1019.7
2018-Jul-20 01:00N 49°47' W 002°00'1021.1
2018-Jul-20 00:30N 49°37' W 002°07'1019.4
2018-Jul-20 00:00N 49°29' W 002°13'1019.2
2018-Jul-19 23:30N 49°20' W 002°18'916.9
2018-Jul-19 22:59N 49°11' W 002°18'715.0
2018-Jul-19 22:30N 49°10' W 002°07'0 0.5
2018-Jul-19 21:27N 49°11' W 002°07'0 0.0
2018-Jul-19 19:33N 49°11' W 002°07'0 0.7
2018-Jul-19 19:30N 49°11' W 002°07'610.0
2018-Jul-19 18:57N 49°10' W 002°15'817.8
2018-Jul-19 18:30N 49°16' W 002°22'918.1
2018-Jul-19 18:00N 49°25' W 002°28'4 7.2
2018-Jul-19 17:30N 49°27' W 002°32'0 0.0
2018-Jul-19 17:00N 49°27' W 002°32'0 0.0
2018-Jul-19 16:30N 49°27' W 002°32'0 0.0
2018-Jul-19 16:00N 49°27' W 002°32'2 5.1
2018-Jul-19 15:30N 49°26' W 002°29'917.0
2018-Jul-19 15:00N 49°30' W 002°18'1615.5
2018-Jul-19 14:00N 49°43' W 002°04'714.1
2018-Jul-19 13:30N 49°49' W 001°57'713.8
2018-Jul-19 13:00N 49°54' W 001°51'714.4
2018-Jul-19 12:30N 49°59' W 001°43'815.0
2018-Jul-19 12:00N 50°06' W 001°37'815.6
2018-Jul-19 11:30N 50°12' W 001°31'815.9
2018-Jul-19 11:00N 50°19' W 001°23'816.3
2018-Jul-19 10:30N 50°25' W 001°15'816.4
2018-Jul-19 10:00N 50°32' W 001°08'816.7
2018-Jul-19 09:30N 50°38' W 001°00'713.8
2018-Jul-19 09:00N 50°45' W 001°05'4 8.3
2018-Jul-19 08:30N 50°49' W 001°06'0 0.0
2018-Jul-19 08:01N 50°49' W 001°06'0 0.0
2018-Jul-19 07:30N 50°49' W 001°06'0 0.0
2018-Jul-19 07:01N 50°49' W 001°06'0 0.0
2018-Jul-19 06:31N 50°49' W 001°06'0 0.0
2018-Jul-19 06:01N 50°49' W 001°06'0 0.0
2018-Jul-19 05:31N 50°49' W 001°06'2 3.2
2018-Jul-19 05:01N 50°47' W 001°07'713.3
2018-Jul-19 04:30N 50°41' W 001°02'714.7
2018-Jul-19 04:00N 50°35' W 001°09'715.0
2018-Jul-19 03:30N 50°30' W 001°17'714.6
2018-Jul-19 03:00N 50°24' W 001°25'815.3
2018-Jul-19 02:30N 50°18' W 001°33'916.8
2018-Jul-19 02:00N 50°11' W 001°40'612.4
2018-Jul-19 01:30N 50°05' W 001°41'613.1
2018-Jul-19 01:01N 49°59' W 001°44'815.1
2018-Jul-19 00:30N 49°54' W 001°52'918.8
2018-Jul-19 00:00N 49°46' W 002°01'1121.3
2018-Jul-18 23:30N 49°36' W 002°08'918.2
2018-Jul-18 23:00N 49°28' W 002°14'917.2
2018-Jul-18 22:31N 49°20' W 002°19'816.3
2018-Jul-18 22:00N 49°12' W 002°19'815.0
2018-Jul-18 21:29N 49°10' W 002°08'1 0.3
2018-Jul-18 19:07N 49°11' W 002°07'0 0.6
2018-Jul-18 19:00N 49°11' W 002°07'714.9
2018-Jul-18 18:30N 49°11' W 002°18'918.1
2018-Jul-18 18:01N 49°19' W 002°24'917.7
2018-Jul-18 17:31N 49°27' W 002°30'1 2.8
2018-Jul-18 17:00N 49°27' W 002°32'0 0.0
2018-Jul-18 16:28N 49°27' W 002°32'0 0.0
2018-Jul-18 16:00N 49°27' W 002°32'2 3.7
2018-Jul-18 15:30N 49°26' W 002°30'816.2
2018-Jul-18 15:00N 49°30' W 002°19'917.1
2018-Jul-18 14:28N 49°36' W 002°08'1515.8
2018-Jul-18 13:30N 49°50' W 001°57'714.7
2018-Jul-18 13:00N 49°55' W 001°50'714.1
2018-Jul-18 12:30N 50°00' W 001°42'714.7
2018-Jul-18 12:00N 50°07' W 001°36'1114.8
2018-Jul-18 11:15N 50°16' W 001°27'1314.9
2018-Jul-18 10:24N 50°26' W 001°15'615.2
2018-Jul-18 10:00N 50°31' W 001°10'815.3
2018-Jul-18 09:30N 50°38' W 001°03'612.9
2018-Jul-18 09:00N 50°44' W 001°04'510.0
2018-Jul-18 08:31N 50°49' W 001°06'0 0.8
2018-Jul-18 08:01N 50°49' W 001°06'0 0.0
2018-Jul-18 07:30N 50°49' W 001°06'0 0.0
2018-Jul-18 07:01N 50°49' W 001°06'0 0.0
2018-Jul-18 06:30N 50°49' W 001°06'0 0.0
2018-Jul-18 06:01N 50°49' W 001°06'0 0.0
2018-Jul-18 05:31N 50°49' W 001°06'1 2.9
2018-Jul-18 05:01N 50°47' W 001°07'713.9
2018-Jul-18 04:30N 50°41' W 001°03'714.7
2018-Jul-18 04:00N 50°35' W 001°10'612.3
2018-Jul-18 03:30N 50°30' W 001°15'5013.6
2018-Jul-17 23:48N 49°48' W 001°59'617.1
2018-Jul-17 23:25N 49°42' W 002°04'716.3
2018-Jul-17 23:00N 49°36' W 002°08'1020.0
2018-Jul-17 22:30N 49°27' W 002°14'1020.1
2018-Jul-17 22:00N 49°17' W 002°20'6 1.5
2018-Jul-17 18:10N 49°12' W 002°19'419.0
2018-Jul-17 17:59N 49°15' W 002°21'817.6
2018-Jul-17 17:30N 49°22' W 002°27'611.2
2018-Jul-17 16:58N 49°27' W 002°32'0 0.0
2018-Jul-17 16:28N 49°27' W 002°32'0 0.0
2018-Jul-17 15:52N 49°27' W 002°32'1 2.7
2018-Jul-17 15:30N 49°27' W 002°30'713.2
2018-Jul-17 15:00N 49°29' W 002°20'1018.0
2018-Jul-17 14:28N 49°35' W 002°09'5715.2
2018-Jul-17 10:41N 50°23' W 001°20'714.3
2018-Jul-17 10:14N 50°28' W 001°14'313.9
2018-Jul-17 10:00N 50°31' W 001°11'714.1
2018-Jul-17 09:30N 50°36' W 001°05'612.6
2018-Jul-17 09:00N 50°42' W 000°60'714.8
2018-Jul-17 08:30N 50°48' W 001°07'1 2.2
2018-Jul-17 07:59N 50°49' W 001°06'0 0.0
2018-Jul-17 07:29N 50°49' W 001°06'0 0.0
2018-Jul-17 06:59N 50°49' W 001°06'0 0.0
2018-Jul-17 06:29N 50°49' W 001°06'0 0.0
2018-Jul-17 05:59N 50°49' W 001°06'0 0.0
2018-Jul-17 05:29N 50°49' W 001°06'2 3.9
2018-Jul-17 05:01N 50°47' W 001°06'713.2
2018-Jul-17 04:30N 50°40' W 001°03'714.4
2018-Jul-17 04:01N 50°35' W 001°10'711.7
2018-Jul-17 03:23N 50°28' W 001°15'5714.5
2018-Jul-16 23:30N 49°41' W 002°05'1019.6
2018-Jul-16 22:59N 49°32' W 002°11'1020.3
2018-Jul-16 22:30N 49°23' W 002°16'11 2.5
2018-Jul-16 18:13N 49°12' W 002°19'618.6
2018-Jul-16 17:54N 49°17' W 002°23'717.9
2018-Jul-16 17:30N 49°24' W 002°28'4 7.4
2018-Jul-16 16:56N 49°27' W 002°32'0 0.0
2018-Jul-16 16:29N 49°27' W 002°32'0 0.0
2018-Jul-16 15:56N 49°27' W 002°32'1 2.8
2018-Jul-16 15:30N 49°27' W 002°30'510.2
2018-Jul-16 15:00N 49°28' W 002°22'815.8
2018-Jul-16 14:30N 49°33' W 002°12'714.1
2018-Jul-16 14:00N 49°38' W 002°06'915.4
2018-Jul-16 13:24N 49°47' W 002°01'615.6
2018-Jul-16 12:59N 49°52' W 001°55'715.9
2018-Jul-16 12:30N 49°58' W 001°48'815.2
2018-Jul-16 12:00N 50°04' W 001°41'814.8
2018-Jul-16 11:30N 50°11' W 001°34'714.7
2018-Jul-16 10:59N 50°17' W 001°28'914.3
2018-Jul-16 10:21N 50°24' W 001°18'514.4
2018-Jul-16 10:00N 50°28' W 001°14'713.9
2018-Jul-16 09:30N 50°34' W 001°08'714.7
2018-Jul-16 09:00N 50°39' W 001°01'714.8
2018-Jul-16 08:30N 50°46' W 001°06'2 4.6
2018-Jul-16 07:58N 50°49' W 001°06'0 0.0
2018-Jul-16 07:28N 50°49' W 001°06'0 0.0
2018-Jul-16 06:58N 50°49' W 001°06'0 0.0
2018-Jul-16 06:28N 50°49' W 001°06'0 0.0
2018-Jul-16 05:58N 50°49' W 001°06'0 0.0
2018-Jul-16 05:28N 50°49' W 001°06'0 0.0
2018-Jul-16 04:58N 50°49' W 001°06'0 0.0
2018-Jul-16 04:28N 50°49' W 001°06'0 0.0
2018-Jul-16 03:58N 50°49' W 001°06'0 0.0
2018-Jul-16 03:28N 50°49' W 001°06'0 0.0
2018-Jul-16 02:58N 50°49' W 001°06'0 0.0
2018-Jul-16 02:28N 50°49' W 001°06'0 0.0
2018-Jul-16 01:58N 50°49' W 001°06'0 0.0
2018-Jul-16 01:28N 50°49' W 001°06'0 0.0
2018-Jul-16 00:58N 50°49' W 001°06'0 0.0
2018-Jul-16 00:28N 50°49' W 001°06'0 0.0
2018-Jul-15 23:58N 50°49' W 001°06'0 0.0
2018-Jul-15 23:28N 50°49' W 001°06'0 0.0
2018-Jul-15 22:58N 50°49' W 001°06'0 0.0
2018-Jul-15 22:28N 50°49' W 001°06'0 0.0
2018-Jul-15 21:58N 50°49' W 001°06'0 0.0
2018-Jul-15 21:28N 50°49' W 001°06'0 0.0
2018-Jul-15 20:58N 50°49' W 001°06'0 0.0
2018-Jul-15 20:28N 50°49' W 001°06'0 0.0
2018-Jul-15 19:58N 50°49' W 001°06'0 0.0
2018-Jul-15 19:28N 50°49' W 001°06'0 0.0
2018-Jul-15 18:58N 50°49' W 001°06'0 0.0
2018-Jul-15 18:28N 50°49' W 001°06'0 0.0
2018-Jul-15 17:58N 50°49' W 001°06'0 0.0
2018-Jul-15 17:28N 50°49' W 001°06'0 0.0
2018-Jul-15 16:58N 50°49' W 001°06'0 0.0
2018-Jul-15 16:28N 50°49' W 001°06'0 0.0
2018-Jul-15 15:58N 50°49' W 001°06'0 0.0
2018-Jul-15 15:28N 50°49' W 001°06'0 0.0
2018-Jul-15 14:58N 50°49' W 001°06'0 0.0
2018-Jul-15 14:28N 50°49' W 001°06'0 0.0
2018-Jul-15 13:58N 50°49' W 001°06'0 0.0
2018-Jul-15 13:28N 50°49' W 001°06'0 0.0
2018-Jul-15 12:58N 50°49' W 001°06'0 0.0
2018-Jul-15 12:28N 50°49' W 001°06'0 0.0
2018-Jul-15 11:58N 50°49' W 001°06'0 0.0
2018-Jul-15 11:28N 50°49' W 001°06'0 0.0
2018-Jul-15 10:58N 50°49' W 001°06'0 0.0
2018-Jul-15 10:31N 50°49' W 001°06'0 0.0
2018-Jul-15 10:01N 50°49' W 001°06'0 0.0
2018-Jul-15 09:31N 50°49' W 001°06'0 0.0
2018-Jul-15 09:01N 50°49' W 001°06'0 0.0
2018-Jul-15 08:31N 50°49' W 001°06'0 0.0
2018-Jul-15 08:01N 50°49' W 001°06'0 0.0
2018-Jul-15 07:31N 50°49' W 001°06'1 1.6
2018-Jul-15 07:01N 50°48' W 001°07'611.6
2018-Jul-15 06:30N 50°43' W 001°03'612.8
2018-Jul-15 06:00N 50°37' W 001°01'815.7
2018-Jul-15 05:30N 50°31' W 001°09'815.4
2018-Jul-15 05:00N 50°25' W 001°16'714.7
2018-Jul-15 04:30N 50°19' W 001°24'814.6
2018-Jul-15 03:57N 50°12' W 001°29'1413.4
2018-Jul-15 02:56N 50°02' W 001°43'713.5
2018-Jul-15 02:26N 49°56' W 001°49'613.7
2018-Jul-15 02:00N 49°51' W 001°55'613.1
2018-Jul-15 01:30N 49°46' W 001°60'510.8
2018-Jul-15 01:00N 49°41' W 002°04'814.2
2018-Jul-15 00:27N 49°34' W 002°09'716.2
2018-Jul-15 00:00N 49°27' W 002°14'816.5
2018-Jul-14 23:30N 49°20' W 002°18'916.7
2018-Jul-14 22:59N 49°11' W 002°18'7 4.1
2018-Jul-14 21:11N 49°11' W 002°07'3 7.4
2018-Jul-14 20:49N 49°10' W 002°11'412.9
2018-Jul-14 20:31N 49°08' W 002°16'4 7.3
2018-Jul-14 20:00N 49°04' W 002°18'1 1.3
2018-Jul-14 19:27N 49°04' W 002°17'4 9.9
2018-Jul-14 19:00N 49°01' W 002°22'5 8.5
2018-Jul-14 18:27N 48°56' W 002°23'4 7.9
2018-Jul-14 18:00N 48°53' W 002°20'4 7.0
2018-Jul-14 17:27N 48°50' W 002°16'6 6.8
2018-Jul-14 16:30N 48°45' W 002°10'4 8.0
2018-Jul-14 15:59N 48°42' W 002°06'5 8.7
2018-Jul-14 15:28N 48°38' W 002°02'0 0.0
2018-Jul-14 14:58N 48°38' W 002°02'0 0.0
2018-Jul-14 14:28N 48°38' W 002°02'0 0.0
2018-Jul-14 13:22N 48°38' W 002°02'0 0.0
2018-Jul-14 12:58N 48°38' W 002°02'0 0.0
2018-Jul-14 12:28N 48°38' W 002°02'0 0.3
2018-Jul-14 12:01N 48°38' W 002°02'1914.0
2018-Jul-14 10:37N 48°57' W 001°56'316.8
2018-Jul-14 10:27N 49°00' W 001°55'714.9
2018-Jul-14 10:00N 49°05' W 002°01'6 3.6
2018-Jul-14 08:13N 49°11' W 002°07'1 5.5
2018-Jul-14 08:01N 49°10' W 002°08'714.1
2018-Jul-14 07:30N 49°12' W 002°19'816.2
2018-Jul-14 07:00N 49°19' W 002°24'816.5
2018-Jul-14 06:30N 49°26' W 002°30'2 3.2
2018-Jul-14 06:00N 49°27' W 002°32'0 0.0
2018-Jul-14 05:30N 49°27' W 002°32'0 0.0
2018-Jul-14 05:00N 49°27' W 002°32'3 6.5
2018-Jul-14 04:30N 49°26' W 002°28'714.6
2018-Jul-14 04:00N 49°30' W 002°18'612.9
2018-Jul-14 03:30N 49°34' W 002°10'714.0
2018-Jul-14 03:01N 49°40' W 002°06'815.7
2018-Jul-14 02:30N 49°47' W 002°01'714.3
2018-Jul-14 02:00N 49°53' W 001°55'1514.8
2018-Jul-14 01:00N 50°05' W 001°41'714.0
2018-Jul-14 00:30N 50°11' W 001°35'1217.2
2018-Jul-13 23:49N 50°21' W 001°26'617.6
2018-Jul-13 23:30N 50°26' W 001°21'817.0
2018-Jul-13 23:00N 50°32' W 001°12'816.7
2018-Jul-13 22:30N 50°39' W 001°05'713.8
2018-Jul-13 22:01N 50°46' W 001°05'3 5.6
2018-Jul-13 21:31N 50°49' W 001°06'0 0.0
2018-Jul-13 21:01N 50°49' W 001°06'0 0.0
2018-Jul-13 20:31N 50°49' W 001°06'0 0.0
2018-Jul-13 20:01N 50°49' W 001°06'0 0.0
2018-Jul-13 19:31N 50°49' W 001°06'0 0.0
2018-Jul-13 19:01N 50°49' W 001°06'0 0.0
2018-Jul-13 18:31N 50°49' W 001°06'1 1.0
2018-Jul-13 18:00N 50°49' W 001°06'510.3
2018-Jul-13 17:31N 50°44' W 001°03'714.4
2018-Jul-13 17:01N 50°37' W 001°04'916.9
2018-Jul-13 16:29N 50°29' W 001°12'816.4
2018-Jul-13 16:01N 50°23' W 001°19'815.8
2018-Jul-13 15:30N 50°17' W 001°26'815.0
2018-Jul-13 14:58N 50°10' W 001°34'714.4
2018-Jul-13 14:30N 50°05' W 001°40'1413.9
2018-Jul-13 13:30N 49°53' W 001°52'713.5
2018-Jul-13 13:00N 49°48' W 001°58'511.1
2018-Jul-13 12:30N 49°43' W 002°02'611.9
2018-Jul-13 12:00N 49°38' W 002°07'714.5
2018-Jul-13 11:30N 49°31' W 002°11'816.1
2018-Jul-13 11:00N 49°24' W 002°16'816.5
2018-Jul-13 10:30N 49°16' W 002°20'714.8
2018-Jul-13 10:00N 49°10' W 002°13'4 1.8
2018-Jul-13 07:41N 49°11' W 002°07'1 4.2
2018-Jul-13 07:30N 49°10' W 002°08'714.0
2018-Jul-13 07:00N 49°11' W 002°18'815.6
2018-Jul-13 06:30N 49°18' W 002°24'816.4
2018-Jul-13 06:00N 49°25' W 002°29'3 5.4
2018-Jul-13 05:29N 49°27' W 002°32'0 0.0
2018-Jul-13 05:00N 49°27' W 002°32'0 0.0
2018-Jul-13 04:30N 49°27' W 002°32'0 0.2
2018-Jul-13 03:59N 49°27' W 002°32'5 9.5
2018-Jul-13 03:30N 49°27' W 002°24'714.1
2018-Jul-13 03:00N 49°31' W 002°15'612.8
2018-Jul-13 02:30N 49°35' W 002°08'814.0
2018-Jul-13 01:57N 49°42' W 002°04'714.2
2018-Jul-13 01:28N 49°48' W 001°59'4315.9
2018-Jul-12 22:47N 50°24' W 001°21'517.4
2018-Jul-12 22:28N 50°28' W 001°16'817.0
2018-Jul-12 22:00N 50°35' W 001°10'816.3
2018-Jul-12 21:31N 50°42' W 001°02'713.7
2018-Jul-12 21:00N 50°48' W 001°07'1 2.2
2018-Jul-12 20:30N 50°49' W 001°06'0 0.0
2018-Jul-12 20:00N 50°49' W 001°06'0 0.0
2018-Jul-12 19:30N 50°49' W 001°06'0 0.0
2018-Jul-12 19:00N 50°49' W 001°06'0 0.0
2018-Jul-12 18:30N 50°49' W 001°06'0 0.0
2018-Jul-12 18:00N 50°49' W 001°06'0 0.0
2018-Jul-12 17:30N 50°49' W 001°06'2 4.7
2018-Jul-12 17:00N 50°46' W 001°06'714.1
2018-Jul-12 16:31N 50°40' W 001°01'917.4
2018-Jul-12 15:58N 50°32' W 001°09'2216.2
2018-Jul-12 14:37N 50°14' W 001°28'315.3
2018-Jul-12 14:27N 50°12' W 001°31'714.7
2018-Jul-12 13:58N 50°06' W 001°38'714.3
2018-Jul-12 13:30N 50°01' W 001°43'714.1
2018-Jul-12 13:00N 49°55' W 001°50'713.8
2018-Jul-12 12:30N 49°50' W 001°56'612.6
2018-Jul-12 12:00N 49°44' W 002°01'611.3
2018-Jul-12 11:28N 49°39' W 002°05'714.2
2018-Jul-12 11:00N 49°33' W 002°10'815.9
2018-Jul-12 10:31N 49°26' W 002°14'816.5
2018-Jul-12 10:01N 49°18' W 002°19'1113.2
2018-Jul-12 09:10N 49°10' W 002°08'  

Dump ship's entire track history